createdAt,value
2023-04-10T00:00:32.839Z,43.42
2023-04-10T00:03:03.501Z,42.47
2023-04-10T00:05:33.968Z,43.28
2023-04-10T00:08:04.406Z,42.97
2023-04-10T00:10:34.652Z,41.20
2023-04-10T00:13:05.103Z,41.35
2023-04-10T00:15:34.695Z,42.63
2023-04-10T00:18:04.098Z,43.17
2023-04-10T00:20:33.415Z,42.75
2023-04-10T00:23:02.725Z,43.67
2023-04-10T00:25:32.566Z,45.30
2023-04-10T00:28:01.831Z,44.92
2023-04-10T00:30:31.301Z,46.17
2023-04-10T00:33:01.029Z,45.92
2023-04-10T00:35:30.481Z,45.97
2023-04-10T00:38:00.270Z,45.75
2023-04-10T00:40:31.511Z,45.90
2023-04-10T00:43:01.241Z,47.67
2023-04-10T00:45:30.984Z,45.80
2023-04-10T00:48:00.612Z,46.58
2023-04-10T00:50:29.920Z,48.10
2023-04-10T00:53:00.530Z,46.42
2023-04-10T00:55:30.292Z,47.67
2023-04-10T00:57:59.890Z,47.83
2023-04-10T01:00:29.377Z,48.05
2023-04-10T01:02:59.158Z,48.95
2023-04-10T01:05:37.357Z,46.88
2023-04-10T01:08:16.339Z,46.47
2023-04-10T01:11:08.824Z,50.10
2023-04-10T01:13:48.574Z,50.60
2023-04-10T01:16:28.568Z,48.90
2023-04-10T01:19:28.198Z,52.65
2023-04-10T01:21:58.421Z,48.58
2023-04-10T01:24:58.249Z,50.20
2023-04-10T01:27:48.495Z,52.15
2023-04-10T01:30:22.239Z,50.22
2023-04-10T01:32:57.160Z,51.65
2023-04-10T01:35:30.428Z,51.08
2023-04-10T01:38:03.058Z,54.67
2023-04-10T01:40:34.815Z,51.33
2023-04-10T01:43:07.583Z,52.58
2023-04-10T01:45:48.417Z,52.15
2023-04-10T01:48:19.786Z,54.47
2023-04-10T01:50:50.310Z,54.60
2023-04-10T01:53:21.042Z,58.67
2023-04-10T01:55:52.186Z,57.45
2023-04-10T01:58:21.802Z,57.72
2023-04-10T02:00:51.505Z,59.95
2023-04-10T02:03:21.781Z,61.35
2023-04-10T02:06:19.155Z,65.32
2023-04-10T02:09:04.793Z,68.47
2023-04-10T02:11:44.025Z,69.35
2023-04-10T02:14:17.795Z,70.32
2023-04-10T02:16:48.081Z,72.85
2023-04-10T02:19:20.472Z,75.38
2023-04-10T02:21:50.049Z,74.70
2023-04-10T02:24:21.218Z,72.70
2023-04-10T02:26:52.252Z,70.93
2023-04-10T02:29:22.076Z,72.90
2023-04-10T02:31:51.871Z,71.18
2023-04-10T02:34:22.019Z,73.70
2023-04-10T02:36:51.352Z,70.68
2023-04-10T02:39:21.716Z,70.07
2023-04-10T02:41:53.572Z,69.10
2023-04-10T02:44:23.065Z,70.57
2023-04-10T02:46:52.445Z,70.78
2023-04-10T02:49:23.066Z,72.20
2023-04-10T02:51:53.310Z,71.82
2023-04-10T02:54:23.931Z,72.55
2023-04-10T02:56:53.321Z,73.30
2023-04-10T02:59:22.960Z,70.55
2023-04-10T03:01:55.562Z,68.72
2023-04-10T03:04:25.286Z,69.95
2023-04-10T03:06:55.778Z,69.13
2023-04-10T03:09:25.769Z,69.88
2023-04-10T03:11:56.772Z,68.72
2023-04-10T03:14:26.009Z,66.20
2023-04-10T03:16:56.045Z,65.93
2023-04-10T03:19:27.702Z,55.03
2023-04-10T03:21:57.235Z,35.78
2023-04-10T03:24:26.565Z,30.30
2023-04-10T03:26:58.152Z,24.50
2023-04-10T03:29:27.599Z,23.15
2023-04-10T03:31:58.550Z,19.80
2023-04-10T03:34:29.201Z,18.77
2023-04-10T03:36:58.855Z,19.17
2023-04-10T03:39:28.114Z,16.92
2023-04-10T03:41:57.480Z,15.57
2023-04-10T03:44:27.573Z,15.00
2023-04-10T03:46:56.979Z,15.50
2023-04-10T03:49:26.371Z,15.50
2023-04-10T03:52:03.895Z,15.43
2023-04-10T03:54:33.183Z,16.55
2023-04-10T03:57:05.458Z,18.90
2023-04-10T03:59:38.543Z,18.83
2023-04-10T04:02:13.571Z,20.20
2023-04-10T04:04:44.802Z,20.23
2023-04-10T04:07:43.199Z,18.70
2023-04-10T04:10:44.789Z,16.00
2023-04-10T04:13:19.523Z,13.43
2023-04-10T04:16:09.131Z,9.93
2023-04-10T04:18:46.218Z,8.43
2023-04-10T04:21:22.690Z,7.90
2023-04-10T04:24:21.073Z,8.10
2023-04-10T04:27:07.333Z,6.85
2023-04-10T04:29:50.810Z,6.80
2023-04-10T04:32:26.837Z,7.13
2023-04-10T04:35:05.023Z,7.25
2023-04-10T04:37:52.857Z,5.97
2023-04-10T04:40:48.922Z,6.03
2023-04-10T04:43:37.686Z,5.90
2023-04-10T04:46:19.976Z,7.13
2023-04-10T04:49:01.494Z,7.13
2023-04-10T04:51:53.554Z,7.03
2023-04-10T04:54:52.384Z,6.60
2023-04-10T04:57:54.691Z,8.80
2023-04-10T05:00:43.078Z,8.13
2023-04-10T05:03:31.067Z,8.35
2023-04-10T05:06:06.938Z,8.38
2023-04-10T05:08:54.750Z,9.40
2023-04-10T05:11:48.132Z,9.82
2023-04-10T05:14:40.119Z,11.27
2023-04-10T05:17:29.456Z,11.65
2023-04-10T05:20:17.350Z,12.32
2023-04-10T05:23:05.496Z,13.00
2023-04-10T05:25:55.733Z,14.77
2023-04-10T05:29:00.794Z,16.98
2023-04-10T05:31:48.461Z,18.08
2023-04-10T05:34:40.847Z,19.15
2023-04-10T05:37:14.323Z,19.15
2023-04-10T05:40:18.937Z,20.08
2023-04-10T05:43:17.854Z,19.65
2023-04-10T05:48:48.116Z,20.58
2023-04-10T05:51:20.019Z,20.25
2023-04-10T05:54:09.838Z,18.88
2023-04-10T05:59:49.576Z,17.73
2023-04-10T06:02:42.470Z,14.45
2023-04-10T06:05:20.492Z,12.20
2023-04-10T06:07:50.303Z,9.93
2023-04-10T06:10:19.900Z,9.77
2023-04-10T06:12:49.343Z,9.68
2023-04-10T06:15:19.364Z,10.18
2023-04-10T06:17:49.006Z,10.00
2023-04-10T06:20:18.442Z,9.00
2023-04-10T06:22:48.366Z,7.95
2023-04-10T06:25:17.755Z,7.47
2023-04-10T06:27:47.783Z,7.93
2023-04-10T06:30:17.099Z,7.90
2023-04-10T06:32:46.910Z,7.60
2023-04-10T06:35:16.729Z,7.07
2023-04-10T06:37:46.584Z,6.07
2023-04-10T06:40:17.738Z,5.05
2023-04-10T06:42:47.307Z,5.68
2023-04-10T06:45:25.028Z,6.18
2023-04-10T06:47:54.814Z,5.15
2023-04-10T06:50:24.675Z,6.10
2023-04-10T06:52:56.927Z,6.30
2023-04-10T06:55:28.127Z,6.20
2023-04-10T06:57:58.280Z,5.53
2023-04-10T07:00:28.138Z,5.57
2023-04-10T07:02:57.863Z,5.80
2023-04-10T07:05:28.034Z,6.15
2023-04-10T07:07:57.744Z,6.28
2023-04-10T07:10:29.550Z,8.65
2023-04-10T07:13:00.012Z,6.90
2023-04-10T07:15:29.650Z,6.72
2023-04-10T07:17:58.989Z,7.15
2023-04-10T07:20:29.456Z,7.50
2023-04-10T07:22:58.748Z,6.97
2023-04-10T07:25:27.990Z,6.45
2023-04-10T07:27:58.212Z,5.53
2023-04-10T07:30:27.873Z,7.05
2023-04-10T07:32:57.287Z,5.78
2023-04-10T07:35:27.120Z,5.55
2023-04-10T07:37:56.702Z,5.30
2023-04-10T07:40:25.867Z,5.32
2023-04-10T07:42:55.601Z,5.05
2023-04-10T07:45:24.926Z,5.80
2023-04-10T07:47:54.522Z,6.55
2023-04-10T07:50:24.148Z,5.78
2023-04-10T07:52:53.324Z,6.72
2023-04-10T07:55:22.628Z,5.25
2023-04-10T07:57:53.515Z,4.60
2023-04-10T08:00:22.979Z,7.32
2023-04-10T08:02:53.158Z,4.70
2023-04-10T08:05:23.199Z,5.20
2023-04-10T08:07:52.689Z,4.55
2023-04-10T08:10:22.103Z,4.10
2023-04-10T08:12:52.048Z,4.57
2023-04-10T08:15:22.166Z,4.80
2023-04-10T08:17:52.083Z,4.25
2023-04-10T08:20:21.404Z,4.35
2023-04-10T08:22:50.809Z,4.03
2023-04-10T08:25:20.396Z,3.85
2023-04-10T08:27:49.724Z,4.10
2023-04-10T08:30:18.987Z,3.85
2023-04-10T08:32:48.693Z,3.35
2023-04-10T08:35:18.633Z,3.60
2023-04-10T08:37:53.632Z,3.50
2023-04-10T08:40:31.908Z,3.25
2023-04-10T08:43:02.215Z,3.20
2023-04-10T08:45:31.998Z,3.65
2023-04-10T08:48:04.287Z,4.60
2023-04-10T08:50:37.357Z,3.78
2023-04-10T08:53:12.437Z,3.78
2023-04-10T08:55:43.228Z,4.63
2023-04-10T08:58:14.744Z,5.40
2023-04-10T09:00:44.283Z,4.28
2023-04-10T09:03:15.350Z,4.57
2023-04-10T09:05:45.234Z,3.95
2023-04-10T09:08:17.186Z,3.63
2023-04-10T09:10:47.141Z,4.00
2023-04-10T09:13:16.503Z,4.40
2023-04-10T09:16:00.252Z,4.43
2023-04-10T09:18:56.848Z,4.22
2023-04-10T09:21:28.446Z,4.70
2023-04-10T09:24:04.067Z,4.05
2023-04-10T09:26:34.771Z,3.95
2023-04-10T09:29:08.476Z,3.95
2023-04-10T09:31:41.758Z,4.50
2023-04-10T09:34:17.201Z,5.10
2023-04-10T09:36:57.289Z,4.40
2023-04-10T09:39:37.517Z,4.30
2023-04-10T09:42:07.918Z,4.40
2023-04-10T09:44:39.241Z,4.15
2023-04-10T09:47:24.481Z,4.97
2023-04-10T09:49:58.608Z,4.35
2023-04-10T09:52:30.852Z,3.90
2023-04-10T09:55:09.658Z,4.03
2023-04-10T09:57:39.828Z,4.15
2023-04-10T10:00:10.635Z,3.83
2023-04-10T10:02:41.747Z,3.03
2023-04-10T10:05:12.669Z,3.60
2023-04-10T10:07:42.632Z,3.72
2023-04-10T10:10:13.873Z,3.35
2023-04-10T10:12:51.734Z,3.20
2023-04-10T10:15:33.260Z,4.35
2023-04-10T10:18:37.667Z,3.78
2023-04-10T10:21:07.526Z,3.83
2023-04-10T10:23:39.144Z,4.03
2023-04-10T10:26:09.217Z,3.00
2023-04-10T10:28:42.291Z,3.72
2023-04-10T10:31:12.774Z,3.50
2023-04-10T10:33:43.153Z,3.40
2023-04-10T10:36:14.950Z,3.35
2023-04-10T10:38:55.768Z,4.30
2023-04-10T10:41:38.598Z,3.97
2023-04-10T10:44:33.166Z,3.97
2023-04-10T10:47:22.677Z,3.72
2023-04-10T10:50:01.487Z,4.35
2023-04-10T10:52:43.869Z,4.45
2023-04-10T10:55:36.519Z,4.35
2023-04-10T10:58:08.468Z,4.57
2023-04-10T11:00:53.316Z,3.72
2023-04-10T11:03:23.815Z,4.05
2023-04-10T11:05:55.654Z,4.25
2023-04-10T11:08:34.928Z,3.58
2023-04-10T11:11:08.981Z,3.50
2023-04-10T11:13:42.999Z,4.10
2023-04-10T11:16:13.211Z,3.70
2023-04-10T11:18:55.885Z,3.78
2023-04-10T11:21:33.011Z,4.28
2023-04-10T11:24:05.062Z,4.88
2023-04-10T11:26:38.727Z,3.88
2023-04-10T11:29:20.996Z,3.88
2023-04-10T11:32:11.551Z,4.03
2023-04-10T11:34:46.912Z,4.07
2023-04-10T11:37:25.636Z,4.40
2023-04-10T11:40:06.484Z,4.30
2023-04-10T11:42:36.612Z,4.00
2023-04-10T11:45:29.092Z,4.55
2023-04-10T11:47:59.057Z,4.10
2023-04-10T11:50:33.283Z,4.30
2023-04-10T11:53:03.062Z,5.05
2023-04-10T11:55:41.693Z,4.47
2023-04-10T11:58:43.342Z,5.55
2023-04-10T12:01:15.640Z,4.85
2023-04-10T12:03:46.200Z,4.28
2023-04-10T12:06:16.809Z,4.03
2023-04-10T12:08:50.741Z,4.55
2023-04-10T12:11:25.971Z,4.40
2023-04-10T12:14:00.320Z,3.90
2023-04-10T12:16:29.917Z,4.35
2023-04-10T12:18:59.539Z,4.45
2023-04-10T12:21:29.168Z,4.70
2023-04-10T12:23:58.679Z,4.03
2023-04-10T12:26:28.308Z,4.00
2023-04-10T12:28:58.774Z,4.18
2023-04-10T12:31:33.907Z,4.65
2023-04-10T12:34:04.372Z,3.78
2023-04-10T12:36:36.184Z,4.53
2023-04-10T12:39:07.142Z,4.28
2023-04-10T12:41:37.309Z,3.50
2023-04-10T12:44:12.410Z,3.83
2023-04-10T12:46:43.660Z,3.75
2023-04-10T12:49:20.021Z,3.55
2023-04-10T12:51:54.213Z,4.45
2023-04-10T12:54:38.036Z,5.00
2023-04-10T12:57:08.110Z,4.72
2023-04-10T12:59:38.525Z,4.60
2023-04-10T13:02:08.851Z,4.95
2023-04-10T13:04:38.888Z,5.38
2023-04-10T13:07:09.123Z,5.50
2023-04-10T13:09:39.637Z,5.65
2023-04-10T13:12:09.300Z,4.53
2023-04-10T13:14:38.975Z,4.95
2023-04-10T13:17:08.457Z,5.68
2023-04-10T13:19:38.748Z,5.70
2023-04-10T13:22:08.941Z,5.57
2023-04-10T13:24:39.366Z,6.53
2023-04-10T13:27:08.878Z,5.43
2023-04-10T13:29:40.215Z,4.90
2023-04-10T13:32:10.778Z,5.10
2023-04-10T13:34:40.103Z,5.03
2023-04-10T13:37:14.320Z,5.30
2023-04-10T13:39:44.575Z,6.63
2023-04-10T13:42:15.239Z,7.38
2023-04-10T13:44:44.447Z,5.95
2023-04-10T13:47:15.865Z,5.93
2023-04-10T13:49:50.380Z,5.75
2023-04-10T13:52:19.669Z,7.70
2023-04-10T13:54:49.055Z,8.05
2023-04-10T13:57:19.316Z,8.18
2023-04-10T13:59:48.525Z,7.60
2023-04-10T14:02:18.485Z,8.20
2023-04-10T14:04:48.535Z,6.75
2023-04-10T14:07:19.759Z,6.18
2023-04-10T14:09:49.946Z,6.78
2023-04-10T14:12:20.693Z,6.22
2023-04-10T14:14:50.043Z,7.20
2023-04-10T14:17:19.793Z,6.35
2023-04-10T14:19:52.729Z,6.72
2023-04-10T14:22:22.484Z,5.80
2023-04-10T14:24:58.920Z,6.28
2023-04-10T14:27:35.851Z,6.43
2023-04-10T14:30:05.499Z,6.75
2023-04-10T14:32:35.198Z,6.25
2023-04-10T14:35:04.768Z,7.10
2023-04-10T14:37:34.056Z,6.63
2023-04-10T14:40:06.134Z,6.90
2023-04-10T14:42:35.639Z,7.78
2023-04-10T14:45:06.733Z,7.45
2023-04-10T14:47:37.404Z,7.60
2023-04-10T14:50:07.908Z,7.47
2023-04-10T14:52:37.207Z,8.10
2023-04-10T14:55:07.034Z,7.45
2023-04-10T14:57:37.204Z,8.80
2023-04-10T15:00:08.921Z,8.43
2023-04-10T15:02:39.926Z,8.85
2023-04-10T15:05:09.876Z,9.63
2023-04-10T15:07:39.710Z,10.63
2023-04-10T15:10:11.875Z,10.60
2023-04-10T15:12:41.434Z,11.25
2023-04-10T15:15:11.653Z,11.57
2023-04-10T15:17:40.991Z,11.20
2023-04-10T15:20:11.435Z,12.90
2023-04-10T15:22:43.544Z,12.45
2023-04-10T15:25:16.126Z,12.02
2023-04-10T15:27:45.784Z,12.77
2023-04-10T15:30:15.356Z,13.10
2023-04-10T15:32:45.339Z,14.02
2023-04-10T15:35:14.990Z,13.18
2023-04-10T15:37:44.401Z,13.15
2023-04-10T15:40:13.935Z,15.10
2023-04-10T15:42:43.410Z,14.02
2023-04-10T15:45:12.864Z,13.27
2023-04-10T15:47:43.152Z,13.43
2023-04-10T15:50:12.471Z,14.00
2023-04-10T15:52:42.449Z,13.48
2023-04-10T15:55:11.863Z,14.93
2023-04-10T15:57:41.455Z,13.55
2023-04-10T16:00:11.413Z,14.85
2023-04-10T16:02:41.741Z,14.63
2023-04-10T16:05:11.523Z,14.50
2023-04-10T16:07:43.419Z,16.38
2023-04-10T16:10:13.121Z,14.95
2023-04-10T16:12:43.386Z,15.55
2023-04-10T16:15:12.811Z,15.48
2023-04-10T16:17:42.504Z,15.75
2023-04-10T16:20:12.694Z,15.68
2023-04-10T16:22:42.470Z,16.75
2023-04-10T16:25:12.555Z,16.45
2023-04-10T16:27:42.264Z,19.02
2023-04-10T16:30:12.807Z,17.88
2023-04-10T16:32:42.326Z,18.83
2023-04-10T16:35:11.915Z,20.08
2023-04-10T16:37:41.746Z,22.38
2023-04-10T16:40:13.541Z,19.90
2023-04-10T16:42:44.314Z,18.80
2023-04-10T16:45:14.100Z,18.42
2023-04-10T16:47:46.434Z,18.77
2023-04-10T16:50:16.721Z,20.50
2023-04-10T16:52:47.085Z,21.10
2023-04-10T16:55:17.583Z,21.83
2023-04-10T16:57:48.541Z,21.65
2023-04-10T17:00:19.091Z,20.92
2023-04-10T17:02:50.459Z,21.42
2023-04-10T17:05:20.518Z,21.92
2023-04-10T17:07:49.949Z,21.48
2023-04-10T17:10:23.760Z,22.23
2023-04-10T17:12:53.067Z,21.05
2023-04-10T17:15:22.958Z,19.88
2023-04-10T17:17:52.281Z,21.02
2023-04-10T17:20:22.092Z,19.58
2023-04-10T17:22:51.853Z,18.45
2023-04-10T17:25:21.843Z,19.30
2023-04-10T17:27:51.061Z,17.48
2023-04-10T17:30:20.741Z,16.98
2023-04-10T17:32:50.544Z,16.73
2023-04-10T17:35:20.432Z,16.08
2023-04-10T17:37:49.603Z,15.38
2023-04-10T17:40:19.274Z,14.38
2023-04-10T17:42:48.811Z,14.90
2023-04-10T17:45:18.310Z,14.73
2023-04-10T17:47:47.666Z,13.93
2023-04-10T17:50:17.460Z,13.98
2023-04-10T17:52:47.379Z,13.23
2023-04-10T17:55:20.859Z,14.20
2023-04-10T17:57:51.077Z,14.98
2023-04-10T18:00:21.067Z,16.45
2023-04-10T18:02:51.026Z,16.00
2023-04-10T18:05:20.644Z,16.80
2023-04-10T18:07:50.090Z,16.23
2023-04-10T18:10:20.151Z,16.75
2023-04-10T18:12:50.039Z,17.00
2023-04-10T18:15:19.731Z,17.35
2023-04-10T18:17:49.495Z,16.83
2023-04-10T18:20:22.108Z,16.27
2023-04-10T18:22:51.799Z,17.13
2023-04-10T18:25:20.997Z,16.35
2023-04-10T18:28:09.745Z,16.52
2023-04-10T18:30:39.975Z,16.63
2023-04-10T18:33:11.277Z,18.10
2023-04-10T18:35:40.885Z,17.10
2023-04-10T18:38:10.369Z,15.77
2023-04-10T18:40:39.570Z,16.80
2023-04-10T18:43:09.008Z,17.63
2023-04-10T18:45:38.166Z,16.45
2023-04-10T18:48:07.492Z,17.27
2023-04-10T18:50:41.621Z,16.75
2023-04-10T18:53:11.596Z,16.70
2023-04-10T18:55:41.267Z,16.90
2023-04-10T18:58:10.260Z,19.10
2023-04-10T19:00:39.702Z,20.77
2023-04-10T19:03:09.194Z,24.85
2023-04-10T19:05:39.275Z,22.83
2023-04-10T19:08:08.655Z,21.05
2023-04-10T19:10:39.393Z,18.30
2023-04-10T19:13:10.132Z,17.45
2023-04-10T19:15:43.534Z,18.27
2023-04-10T19:18:14.906Z,17.58
2023-04-10T19:20:52.717Z,17.50
2023-04-10T19:23:23.214Z,16.48
2023-04-10T19:25:55.855Z,18.83
2023-04-10T19:28:25.273Z,17.88
2023-04-10T19:30:54.635Z,18.92
2023-04-10T19:33:24.906Z,18.05
2023-04-10T19:35:54.884Z,17.23
2023-04-10T19:38:24.167Z,17.88
2023-04-10T19:40:53.581Z,17.50
2023-04-10T19:43:23.008Z,18.75
2023-04-10T19:45:54.106Z,17.98
2023-04-10T19:48:24.173Z,18.55
2023-04-10T19:50:53.272Z,18.63
2023-04-10T19:53:22.655Z,18.50
2023-04-10T19:55:52.108Z,18.27
2023-04-10T19:58:38.850Z,18.60
2023-04-10T20:01:10.367Z,19.77
2023-04-10T20:03:40.137Z,18.95
2023-04-10T20:06:09.936Z,18.85
2023-04-10T20:08:39.222Z,18.80
2023-04-10T20:11:08.574Z,19.63
2023-04-10T20:13:37.844Z,19.08
2023-04-10T20:16:08.793Z,20.83
2023-04-10T20:18:38.491Z,18.63
2023-04-10T20:21:09.118Z,17.98
2023-04-10T20:23:39.288Z,18.33
2023-04-10T20:26:09.830Z,18.90
2023-04-10T20:28:40.563Z,17.85
2023-04-10T20:31:12.059Z,17.38
2023-04-10T20:33:41.956Z,17.92
2023-04-10T20:36:11.621Z,17.65
2023-04-10T20:38:41.147Z,17.27
2023-04-10T20:41:10.388Z,18.77
2023-04-10T20:43:39.717Z,17.48
2023-04-10T20:46:10.194Z,17.73
2023-04-10T20:48:39.726Z,18.73
2023-04-10T20:51:10.649Z,17.73
2023-04-10T20:53:40.441Z,18.73
2023-04-10T20:56:10.120Z,17.55
2023-04-10T20:58:40.056Z,18.05
2023-04-10T21:01:12.740Z,17.58
2023-04-10T21:03:42.220Z,19.65
2023-04-10T21:06:12.227Z,18.83
2023-04-10T21:08:41.522Z,18.70
2023-04-10T21:11:10.905Z,17.80
2023-04-10T21:13:40.267Z,17.73
2023-04-10T21:16:09.653Z,17.65
2023-04-10T21:18:39.253Z,18.67
2023-04-10T21:21:09.486Z,18.20
2023-04-10T21:23:38.716Z,17.75
2023-04-10T21:26:08.350Z,18.27
2023-04-10T21:28:37.712Z,18.92
2023-04-10T21:31:07.157Z,18.48
2023-04-10T21:33:36.933Z,18.52
2023-04-10T21:36:07.565Z,19.38
2023-04-10T21:38:37.702Z,18.92
2023-04-10T21:41:07.243Z,18.38
2023-04-10T21:43:36.563Z,19.15
2023-04-10T21:46:06.137Z,20.35
2023-04-10T21:48:35.728Z,18.70
2023-04-10T21:51:05.033Z,18.58
2023-04-10T21:53:34.327Z,19.80
2023-04-10T21:56:03.735Z,20.15
2023-04-10T21:58:33.409Z,18.77
2023-04-10T22:01:02.886Z,19.23
2023-04-10T22:03:32.825Z,18.80
2023-04-10T22:06:02.625Z,19.13
2023-04-10T22:08:32.194Z,18.42
2023-04-10T22:11:01.225Z,18.20
2023-04-10T22:13:31.329Z,19.92
2023-04-10T22:16:03.132Z,20.02
2023-04-10T22:18:32.503Z,20.90
2023-04-10T22:21:02.440Z,19.20
2023-04-10T22:23:31.615Z,19.27
2023-04-10T22:26:02.364Z,20.15
2023-04-10T22:28:31.896Z,19.80
2023-04-10T22:31:02.284Z,22.20
2023-04-10T22:33:34.528Z,20.80
2023-04-10T22:36:04.695Z,23.33
2023-04-10T22:38:33.813Z,22.17
2023-04-10T22:41:03.049Z,23.30
2023-04-10T22:43:32.233Z,23.73
2023-04-10T22:46:01.649Z,23.95
2023-04-10T22:48:31.092Z,24.42
2023-04-10T22:51:00.353Z,26.63
2023-04-10T22:53:29.901Z,26.52
2023-04-10T22:55:59.247Z,27.80
2023-04-10T22:58:28.381Z,27.50
2023-04-10T23:00:57.929Z,25.48
2023-04-10T23:03:27.044Z,28.52
2023-04-10T23:05:56.817Z,32.67
2023-04-10T23:08:26.295Z,31.00
2023-04-10T23:10:56.920Z,32.63
2023-04-10T23:13:26.837Z,36.05
2023-04-10T23:15:57.866Z,40.70
2023-04-10T23:18:27.292Z,40.00
2023-04-10T23:20:57.140Z,40.83
2023-04-10T23:23:27.195Z,39.78
2023-04-10T23:26:00.161Z,39.92
2023-04-10T23:28:30.250Z,41.28
2023-04-10T23:30:59.715Z,39.15
2023-04-10T23:33:28.837Z,39.42
2023-04-10T23:35:58.370Z,39.00
2023-04-10T23:38:27.960Z,40.75
2023-04-10T23:40:57.742Z,41.22
2023-04-10T23:43:26.991Z,41.67
2023-04-10T23:45:57.061Z,41.03
2023-04-10T23:48:26.879Z,40.72
2023-04-10T23:51:05.377Z,42.83
2023-04-10T23:53:35.649Z,42.50
2023-04-10T23:56:04.946Z,42.80
2023-04-10T23:58:34.465Z,43.08
